createdAt,value
2019-02-07T00:00:53.657Z,17.52
2019-02-07T00:04:00.921Z,14.90
2019-02-07T00:07:08.023Z,13.43
2019-02-07T00:10:16.161Z,20.92
2019-02-07T00:13:23.377Z,15.78
2019-02-07T00:16:30.812Z,20.68
2019-02-07T00:19:37.839Z,14.35
2019-02-07T00:22:45.319Z,16.73
2019-02-07T00:25:52.462Z,16.67
2019-02-07T00:28:59.818Z,17.17
2019-02-07T00:32:07.290Z,14.50
2019-02-07T00:35:14.991Z,17.48
2019-02-07T00:38:22.051Z,18.05
2019-02-07T00:41:29.177Z,16.48
2019-02-07T00:44:36.213Z,13.10
2019-02-07T00:47:43.342Z,15.13
2019-02-07T00:50:50.689Z,17.57
2019-02-07T00:53:57.777Z,15.68
2019-02-07T00:57:05.028Z,12.05
2019-02-07T01:00:15.994Z,20.75
2019-02-07T01:03:22.977Z,14.35
2019-02-07T01:06:30.253Z,18.80
2019-02-07T01:09:37.265Z,16.70
2019-02-07T01:12:50.243Z,14.15
2019-02-07T01:15:57.390Z,12.90
2019-02-07T01:19:04.466Z,12.68
2019-02-07T01:22:11.766Z,16.17
2019-02-07T01:25:20.779Z,16.40
2019-02-07T01:28:28.152Z,18.30
2019-02-07T01:31:35.955Z,17.48
2019-02-07T01:34:43.086Z,22.67
2019-02-07T01:37:50.420Z,11.12
2019-02-07T01:40:57.538Z,12.10
2019-02-07T01:44:04.846Z,14.75
2019-02-07T01:47:11.974Z,12.35
2019-02-07T01:50:20.727Z,20.55
2019-02-07T01:53:28.222Z,14.05
2019-02-07T01:56:35.277Z,11.35
2019-02-07T01:59:42.485Z,12.80
2019-02-07T02:02:50.602Z,13.65
2019-02-07T02:05:57.941Z,12.93
2019-02-07T02:09:08.105Z,10.30
2019-02-07T02:12:15.282Z,8.30
2019-02-07T02:15:25.253Z,10.78
2019-02-07T02:18:32.425Z,12.18
2019-02-07T02:21:39.794Z,14.05
2019-02-07T02:24:46.891Z,9.98
2019-02-07T02:27:54.316Z,15.80
2019-02-07T02:31:01.373Z,12.25
2019-02-07T02:34:08.773Z,14.35
2019-02-07T02:37:16.352Z,12.80
2019-02-07T02:40:23.544Z,17.37
2019-02-07T02:43:30.608Z,11.48
2019-02-07T02:46:37.924Z,9.63
2019-02-07T02:49:45.590Z,13.75
2019-02-07T02:52:52.818Z,12.68
2019-02-07T02:56:02.131Z,11.45
2019-02-07T02:59:09.381Z,8.38
2019-02-07T03:02:44.714Z,8.68
2019-02-07T03:06:12.104Z,9.63
2019-02-07T03:09:43.499Z,11.95
2019-02-07T03:13:08.715Z,9.50
2019-02-07T03:16:43.875Z,9.45
2019-02-07T03:20:12.376Z,10.82
2019-02-07T03:23:33.934Z,9.90
2019-02-07T03:27:05.527Z,13.15
2019-02-07T03:30:23.136Z,11.10
2019-02-07T03:33:37.228Z,14.28
2019-02-07T03:37:06.417Z,12.23
2019-02-07T03:40:30.793Z,10.48
2019-02-07T03:44:03.297Z,11.78
2019-02-07T03:47:27.424Z,11.05
2019-02-07T03:50:52.704Z,11.35
2019-02-07T03:54:18.027Z,11.83
2019-02-07T03:57:43.149Z,13.05
2019-02-07T04:01:08.087Z,15.63
2019-02-07T04:04:40.130Z,10.72
2019-02-07T04:08:22.072Z,10.03
2019-02-07T04:11:46.925Z,11.15
2019-02-07T04:15:04.218Z,11.83
2019-02-07T04:18:43.160Z,8.00
2019-02-07T04:22:06.291Z,11.15
2019-02-07T04:25:41.248Z,8.50
2019-02-07T04:29:04.723Z,8.20
2019-02-07T04:32:43.072Z,11.00
2019-02-07T04:36:18.271Z,10.70
2019-02-07T04:39:34.482Z,11.18
2019-02-07T04:43:15.942Z,12.13
2019-02-07T04:46:45.071Z,11.18
2019-02-07T04:50:13.249Z,11.08
2019-02-07T04:53:34.427Z,12.45
2019-02-07T04:57:06.490Z,13.08
2019-02-07T05:00:34.405Z,9.43
2019-02-07T05:04:00.413Z,9.85
2019-02-07T05:07:25.295Z,10.60
2019-02-07T05:10:51.467Z,7.33
2019-02-07T05:14:21.010Z,9.50
2019-02-07T05:17:45.805Z,9.90
2019-02-07T05:21:10.549Z,7.87
2019-02-07T05:24:35.454Z,6.83
2019-02-07T05:28:00.997Z,10.30
2019-02-07T05:31:17.929Z,11.00
2019-02-07T05:34:44.221Z,11.90
2019-02-07T05:38:25.445Z,9.83
2019-02-07T05:41:51.477Z,13.15
2019-02-07T05:45:15.741Z,8.95
2019-02-07T05:48:41.011Z,14.68
2019-02-07T05:52:25.458Z,12.07
2019-02-07T05:56:12.859Z,9.20
2019-02-07T05:59:47.760Z,12.35
2019-02-07T06:03:11.758Z,15.28
2019-02-07T06:06:46.651Z,12.58
2019-02-07T06:10:12.523Z,12.95
2019-02-07T06:13:41.919Z,11.80
2019-02-07T06:17:07.085Z,14.80
2019-02-07T06:20:48.560Z,9.98
2019-02-07T06:24:06.909Z,8.30
2019-02-07T06:27:35.884Z,14.25
2019-02-07T06:30:48.356Z,14.33
2019-02-07T06:34:13.493Z,12.98
2019-02-07T06:37:38.572Z,13.75
2019-02-07T06:40:57.650Z,16.67
2019-02-07T06:44:15.852Z,13.20
2019-02-07T06:47:54.956Z,19.42
2019-02-07T06:51:14.446Z,18.10
2019-02-07T06:54:39.849Z,10.98
2019-02-07T06:58:09.766Z,14.98
2019-02-07T07:01:51.148Z,13.53
2019-02-07T07:05:29.678Z,13.38
2019-02-07T07:09:05.018Z,11.73
2019-02-07T07:12:40.498Z,11.15
2019-02-07T07:16:13.791Z,13.83
2019-02-07T07:19:58.285Z,16.65
2019-02-07T07:23:23.959Z,15.08
2019-02-07T07:27:05.489Z,18.77
2019-02-07T07:30:51.697Z,11.33
2019-02-07T07:34:12.281Z,13.28
2019-02-07T07:37:44.173Z,15.32
2019-02-07T07:41:07.333Z,14.47
2019-02-07T07:44:41.479Z,14.38
2019-02-07T07:48:14.124Z,13.60
2019-02-07T07:51:43.122Z,14.93
2019-02-07T07:55:12.262Z,16.30
2019-02-07T07:58:28.066Z,11.95
2019-02-07T08:02:12.149Z,16.60
2019-02-07T08:05:38.087Z,16.35
2019-02-07T08:09:00.784Z,18.25
2019-02-07T08:12:15.793Z,19.98
2019-02-07T08:15:48.351Z,20.80
2019-02-07T08:19:14.322Z,18.00
2019-02-07T08:22:39.457Z,15.55
2019-02-07T08:26:04.325Z,18.45
2019-02-07T08:29:29.078Z,12.33
2019-02-07T08:32:53.706Z,13.05
2019-02-07T08:36:22.908Z,21.90
2019-02-07T08:39:50.332Z,15.83
2019-02-07T08:43:30.296Z,18.67
2019-02-07T08:46:49.036Z,14.45
2019-02-07T08:50:13.699Z,19.67
2019-02-07T08:53:30.945Z,15.48
2019-02-07T08:56:59.721Z,15.98
2019-02-07T09:00:31.797Z,16.67
2019-02-07T09:03:56.438Z,18.30
2019-02-07T09:07:26.491Z,11.75
2019-02-07T09:10:58.893Z,14.23
2019-02-07T09:14:24.272Z,17.00
2019-02-07T09:18:09.827Z,17.95
2019-02-07T09:21:43.269Z,18.60
2019-02-07T09:25:12.535Z,19.35
2019-02-07T09:28:38.475Z,18.80
2019-02-07T09:32:17.544Z,21.90
2019-02-07T09:35:48.657Z,17.55
2019-02-07T09:39:26.943Z,21.27
2019-02-07T09:42:49.012Z,23.38
2019-02-07T09:46:13.732Z,24.90
2019-02-07T09:49:38.670Z,20.37
2019-02-07T09:53:03.542Z,26.47
2019-02-07T09:56:32.544Z,19.23
2019-02-07T09:59:58.541Z,28.33
2019-02-07T10:03:24.746Z,21.90
2019-02-07T10:07:05.882Z,26.37
2019-02-07T10:10:25.402Z,25.97
2019-02-07T10:13:50.081Z,24.67
2019-02-07T10:17:15.019Z,28.98
2019-02-07T10:20:39.893Z,31.77
2019-02-07T10:24:04.589Z,23.55
2019-02-07T10:27:36.838Z,18.42
2019-02-07T10:31:06.066Z,33.73
2019-02-07T10:34:40.437Z,28.35
2019-02-07T10:38:04.925Z,26.90
2019-02-07T10:41:31.878Z,25.70
2019-02-07T10:44:55.930Z,25.12
2019-02-07T10:48:18.763Z,25.02
2019-02-07T10:51:43.621Z,30.88
2019-02-07T10:55:03.040Z,24.47
2019-02-07T10:58:29.378Z,27.17
2019-02-07T11:02:01.912Z,27.77
2019-02-07T11:05:27.093Z,20.85
2019-02-07T11:08:36.151Z,24.45
2019-02-07T11:12:00.980Z,23.27
2019-02-07T11:15:27.946Z,26.17
2019-02-07T11:18:55.734Z,26.82
2019-02-07T11:22:22.980Z,31.30
2019-02-07T11:25:47.448Z,24.37
2019-02-07T11:29:12.325Z,11.65
2019-02-07T11:32:50.629Z,23.07
2019-02-07T11:36:21.236Z,27.30
2019-02-07T11:39:56.561Z,24.47
2019-02-07T11:43:23.644Z,24.00
2019-02-07T11:46:52.039Z,27.80
2019-02-07T11:50:16.427Z,21.82
2019-02-07T11:53:48.906Z,21.25
2019-02-07T11:57:13.948Z,22.75
2019-02-07T12:00:43.642Z,23.75
2019-02-07T12:03:59.222Z,20.95
2019-02-07T12:07:30.091Z,18.17
2019-02-07T12:11:02.690Z,21.27
2019-02-07T12:14:53.740Z,21.93
2019-02-07T12:18:07.919Z,22.25
2019-02-07T12:21:46.176Z,23.15
2019-02-07T12:25:30.284Z,21.70
2019-02-07T12:28:58.842Z,20.88
2019-02-07T12:32:43.001Z,18.05
2019-02-07T12:36:18.061Z,19.05
2019-02-07T12:39:47.151Z,25.05
2019-02-07T12:43:12.491Z,23.83
2019-02-07T12:46:38.857Z,24.10
2019-02-07T12:50:04.030Z,22.40
2019-02-07T12:53:47.607Z,23.87
2019-02-07T12:57:15.424Z,24.80
2019-02-07T13:00:42.077Z,18.92
2019-02-07T13:04:10.424Z,26.95
2019-02-07T13:07:53.912Z,21.82
2019-02-07T13:11:38.380Z,24.07
2019-02-07T13:15:23.499Z,20.40
2019-02-07T13:19:00.550Z,18.35
2019-02-07T13:23:02.889Z,25.02
2019-02-07T13:30:21.859Z,20.12
2019-02-07T13:33:57.065Z,22.62
2019-02-07T13:37:38.437Z,20.68
2019-02-07T13:41:01.345Z,24.02
2019-02-07T13:44:36.800Z,20.72
2019-02-07T13:48:06.106Z,22.42
2019-02-07T13:51:50.701Z,20.30
2019-02-07T13:55:16.016Z,25.45
2019-02-07T13:58:38.707Z,20.57
2019-02-07T14:02:13.564Z,19.73
2019-02-07T14:05:52.585Z,22.87
2019-02-07T14:09:36.565Z,22.27
2019-02-07T14:13:01.441Z,21.02
2019-02-07T14:16:36.942Z,21.45
2019-02-07T14:20:03.362Z,26.57
2019-02-07T14:23:18.619Z,25.57
2019-02-07T14:27:00.063Z,28.60
2019-02-07T14:30:26.217Z,20.97
2019-02-07T14:33:52.603Z,19.67
2019-02-07T14:37:14.167Z,25.72
2019-02-07T14:40:39.366Z,25.70
2019-02-07T14:44:03.237Z,24.77
2019-02-07T14:47:10.298Z,28.07
2019-02-07T14:50:17.537Z,22.27
2019-02-07T14:53:25.170Z,24.57
2019-02-07T14:56:32.279Z,31.55
2019-02-07T14:59:39.721Z,20.23
2019-02-07T15:02:46.816Z,22.82
2019-02-07T15:05:53.952Z,23.60
2019-02-07T15:09:01.157Z,27.60
2019-02-07T15:12:08.532Z,21.45
2019-02-07T15:15:16.565Z,25.27
2019-02-07T15:18:23.962Z,31.27
2019-02-07T15:21:31.566Z,25.62
2019-02-07T15:24:38.887Z,21.97
2019-02-07T15:27:46.073Z,28.70
2019-02-07T15:30:53.227Z,21.25
2019-02-07T15:34:00.830Z,21.52
2019-02-07T15:37:08.167Z,27.60
2019-02-07T15:40:17.661Z,24.18
2019-02-07T15:43:25.234Z,30.48
2019-02-07T15:46:33.145Z,28.07
2019-02-07T15:49:40.384Z,25.68
2019-02-07T15:52:47.608Z,29.67
2019-02-07T15:55:54.909Z,27.62
2019-02-07T15:59:14.450Z,32.98
2019-02-07T16:02:28.117Z,30.65
2019-02-07T16:05:35.634Z,25.68
2019-02-07T16:08:42.659Z,32.75
2019-02-07T16:11:51.825Z,25.45
2019-02-07T16:14:58.846Z,18.62
2019-02-07T16:18:06.019Z,23.65
2019-02-07T16:21:13.052Z,23.90
2019-02-07T16:24:20.433Z,20.12
2019-02-07T16:27:27.713Z,23.60
2019-02-07T16:30:34.908Z,29.70
2019-02-07T16:33:42.334Z,27.70
2019-02-07T16:36:50.054Z,26.62
2019-02-07T16:39:58.508Z,28.90
2019-02-07T16:43:06.320Z,35.10
2019-02-07T16:46:32.918Z,21.93
2019-02-07T16:49:40.364Z,23.40
2019-02-07T16:52:53.106Z,27.82
2019-02-07T16:56:00.460Z,29.25
2019-02-07T16:59:07.442Z,31.05
2019-02-07T17:02:15.046Z,29.25
2019-02-07T17:05:24.393Z,31.77
2019-02-07T17:08:31.646Z,29.07
2019-02-07T17:11:39.100Z,28.20
2019-02-07T17:14:46.745Z,25.48
2019-02-07T17:17:54.893Z,30.72
2019-02-07T17:21:11.529Z,27.07
2019-02-07T17:24:11.101Z,24.75
2019-02-07T17:27:18.429Z,31.73
2019-02-07T17:30:26.097Z,31.37
2019-02-07T17:33:33.315Z,29.37
2019-02-07T17:36:40.566Z,29.60
2019-02-07T17:39:48.035Z,31.37
2019-02-07T17:42:55.639Z,25.55
2019-02-07T17:46:02.864Z,26.75
2019-02-07T17:49:13.234Z,28.52
2019-02-07T17:52:20.413Z,38.40
2019-02-07T17:55:29.242Z,31.10
2019-02-07T17:58:36.570Z,29.77
2019-02-07T18:01:44.497Z,28.27
2019-02-07T18:04:51.744Z,25.45
2019-02-07T18:07:59.958Z,22.67
2019-02-07T18:11:11.617Z,24.10
2019-02-07T18:14:37.871Z,24.00
2019-02-07T18:17:45.061Z,22.45
2019-02-07T18:20:52.245Z,27.00
2019-02-07T18:24:00.355Z,30.17
2019-02-07T18:27:07.785Z,26.90
2019-02-07T18:30:17.409Z,25.25
2019-02-07T18:33:24.933Z,27.67
2019-02-07T18:36:32.039Z,24.40
2019-02-07T18:39:39.438Z,21.33
2019-02-07T18:42:46.515Z,25.35
2019-02-07T18:45:53.754Z,27.40
2019-02-07T18:49:00.970Z,26.62
2019-02-07T18:52:08.305Z,27.00
2019-02-07T18:55:15.955Z,33.18
2019-02-07T18:58:22.977Z,28.32
2019-02-07T19:01:30.254Z,29.98
2019-02-07T19:04:38.567Z,28.35
2019-02-07T19:07:45.685Z,25.35
2019-02-07T19:11:11.852Z,23.27
2019-02-07T19:14:19.363Z,24.80
2019-02-07T19:17:26.734Z,25.40
2019-02-07T19:20:34.058Z,25.43
2019-02-07T19:23:41.295Z,27.25
2019-02-07T19:26:48.783Z,29.48
2019-02-07T19:30:17.821Z,27.02
2019-02-07T19:33:24.974Z,21.23
2019-02-07T19:36:32.088Z,27.95
2019-02-07T19:39:39.374Z,25.05
2019-02-07T19:42:46.995Z,26.87
2019-02-07T19:45:54.669Z,31.90
2019-02-07T19:49:01.760Z,23.07
2019-02-07T19:52:09.794Z,27.37
2019-02-07T19:55:19.742Z,27.17
2019-02-07T19:58:26.875Z,22.55
2019-02-07T20:01:34.069Z,27.22
2019-02-07T20:04:44.176Z,31.17
2019-02-07T20:07:51.826Z,21.07
2019-02-07T20:11:18.758Z,23.67
2019-02-07T20:14:26.976Z,24.25
2019-02-07T20:17:34.132Z,23.45
2019-02-07T20:20:41.981Z,22.82
2019-02-07T20:23:49.823Z,23.12
2019-02-07T20:26:57.681Z,26.75
2019-02-07T20:30:07.231Z,29.40
2019-02-07T20:33:14.827Z,25.20
2019-02-07T20:36:21.994Z,24.70
2019-02-07T20:39:29.335Z,28.27
2019-02-07T20:42:36.431Z,27.48
2019-02-07T20:45:43.678Z,24.43
2019-02-07T20:48:51.190Z,23.05
2019-02-07T20:51:58.339Z,25.08
2019-02-07T20:55:06.967Z,32.73
2019-02-07T20:58:14.774Z,26.15
2019-02-07T21:01:21.709Z,23.38
2019-02-07T21:04:29.358Z,26.97
2019-02-07T21:07:38.049Z,25.77
2019-02-07T21:10:45.323Z,24.47
2019-02-07T21:13:52.733Z,24.32
2019-02-07T21:16:59.828Z,29.30
2019-02-07T21:20:08.566Z,28.52
2019-02-07T21:23:16.762Z,26.27
2019-02-07T21:26:24.157Z,28.12
2019-02-07T21:29:31.587Z,22.95
2019-02-07T21:32:39.312Z,24.07
2019-02-07T21:35:47.068Z,18.85
2019-02-07T21:38:54.461Z,19.32
2019-02-07T21:42:01.628Z,26.33
2019-02-07T21:45:10.392Z,27.17
2019-02-07T21:48:21.750Z,20.65
2019-02-07T21:51:28.823Z,21.97
2019-02-07T21:54:35.912Z,21.85
2019-02-07T21:57:43.525Z,29.12
2019-02-07T22:00:50.911Z,29.30
2019-02-07T22:03:57.934Z,28.45
2019-02-07T22:07:04.941Z,27.85
2019-02-07T22:10:12.913Z,25.32
2019-02-07T22:13:19.999Z,30.77
2019-02-07T22:16:28.416Z,23.20
2019-02-07T22:19:35.785Z,23.57
2019-02-07T22:22:49.120Z,24.18
2019-02-07T22:25:52.770Z,24.32
2019-02-07T22:28:59.854Z,24.77
2019-02-07T22:32:07.665Z,26.50
2019-02-07T22:35:14.941Z,27.07
2019-02-07T22:38:22.175Z,21.73
2019-02-07T22:41:29.591Z,19.50
2019-02-07T22:44:36.580Z,23.52
2019-02-07T22:47:44.276Z,28.62
2019-02-07T22:50:52.511Z,24.37
2019-02-07T22:53:59.639Z,22.22
2019-02-07T22:57:06.657Z,23.25
2019-02-07T23:01:13.652Z,25.23
2019-02-07T23:04:22.486Z,19.60
2019-02-07T23:07:30.090Z,18.37
2019-02-07T23:10:37.879Z,20.68
2019-02-07T23:13:45.206Z,21.60
2019-02-07T23:16:52.872Z,28.20
2019-02-07T23:20:00.226Z,20.40
2019-02-07T23:23:09.291Z,20.73
2019-02-07T23:26:16.886Z,23.57
2019-02-07T23:29:24.848Z,26.60
2019-02-07T23:32:32.373Z,23.77
2019-02-07T23:35:39.660Z,19.87
2019-02-07T23:38:46.674Z,21.93
2019-02-07T23:41:53.720Z,18.93
2019-02-07T23:45:00.792Z,22.13
2019-02-07T23:48:08.001Z,19.50
2019-02-07T23:51:15.205Z,19.70
2019-02-07T23:54:22.403Z,24.30
2019-02-07T23:57:29.739Z,26.17
